sensor_id;sensor_type;location;lat;lon;timestamp;P1;durP1;ratioP1;P2;durP2;ratioP2
72087;SDS011;59961;50.232;8.616;2022-08-21T00:00:24;8.03;;;3.73;;
72087;SDS011;59961;50.232;8.616;2022-08-21T00:02:51;8.55;;;3.80;;
72087;SDS011;59961;50.232;8.616;2022-08-21T00:05:16;11.20;;;3.78;;
72087;SDS011;59961;50.232;8.616;2022-08-21T00:07:42;7.63;;;3.53;;
72087;SDS011;59961;50.232;8.616;2022-08-21T00:10:07;8.37;;;3.67;;
72087;SDS011;59961;50.232;8.616;2022-08-21T00:12:32;8.90;;;3.90;;
72087;SDS011;59961;50.232;8.616;2022-08-21T00:14:58;9.40;;;4.47;;
72087;SDS011;59961;50.232;8.616;2022-08-21T00:17:23;6.72;;;3.72;;
72087;SDS011;59961;50.232;8.616;2022-08-21T00:19:48;7.57;;;3.90;;
72087;SDS011;59961;50.232;8.616;2022-08-21T00:22:13;12.80;;;4.07;;
72087;SDS011;59961;50.232;8.616;2022-08-21T00:24:38;9.67;;;4.40;;
72087;SDS011;59961;50.232;8.616;2022-08-21T00:27:04;9.90;;;3.60;;
72087;SDS011;59961;50.232;8.616;2022-08-21T00:29:29;8.73;;;4.00;;
72087;SDS011;59961;50.232;8.616;2022-08-21T00:31:54;7.78;;;3.53;;
72087;SDS011;59961;50.232;8.616;2022-08-21T00:34:19;8.85;;;3.85;;
72087;SDS011;59961;50.232;8.616;2022-08-21T00:36:44;10.30;;;4.07;;
72087;SDS011;59961;50.232;8.616;2022-08-21T00:39:09;7.10;;;3.77;;
72087;SDS011;59961;50.232;8.616;2022-08-21T00:41:36;8.63;;;4.03;;
72087;SDS011;59961;50.232;8.616;2022-08-21T00:44:01;8.80;;;4.20;;
72087;SDS011;59961;50.232;8.616;2022-08-21T00:46:27;8.32;;;3.50;;
72087;SDS011;59961;50.232;8.616;2022-08-21T00:48:52;7.53;;;4.30;;
72087;SDS011;59961;50.232;8.616;2022-08-21T00:51:22;7.27;;;3.50;;
72087;SDS011;59961;50.232;8.616;2022-08-21T00:53:51;8.30;;;3.78;;
72087;SDS011;59961;50.232;8.616;2022-08-21T00:56:18;8.27;;;4.10;;
72087;SDS011;59961;50.232;8.616;2022-08-21T00:58:44;11.50;;;4.00;;
72087;SDS011;59961;50.232;8.616;2022-08-21T01:01:10;8.37;;;3.80;;
72087;SDS011;59961;50.232;8.616;2022-08-21T01:03:36;7.65;;;4.38;;
72087;SDS011;59961;50.232;8.616;2022-08-21T01:06:01;7.78;;;3.70;;
72087;SDS011;59961;50.232;8.616;2022-08-21T01:08:27;8.57;;;4.20;;
72087;SDS011;59961;50.232;8.616;2022-08-21T01:10:54;7.83;;;4.27;;
72087;SDS011;59961;50.232;8.616;2022-08-21T01:13:19;9.20;;;4.40;;
72087;SDS011;59961;50.232;8.616;2022-08-21T01:15:46;7.97;;;3.73;;
72087;SDS011;59961;50.232;8.616;2022-08-21T01:18:12;11.23;;;4.57;;
72087;SDS011;59961;50.232;8.616;2022-08-21T01:20:38;8.07;;;4.50;;
72087;SDS011;59961;50.232;8.616;2022-08-21T01:23:05;9.37;;;4.87;;
72087;SDS011;59961;50.232;8.616;2022-08-21T01:25:31;9.07;;;4.57;;
72087;SDS011;59961;50.232;8.616;2022-08-21T01:27:57;8.77;;;4.20;;
72087;SDS011;59961;50.232;8.616;2022-08-21T01:30:26;9.60;;;3.80;;
72087;SDS011;59961;50.232;8.616;2022-08-21T01:32:51;8.13;;;4.53;;
72087;SDS011;59961;50.232;8.616;2022-08-21T01:35:17;8.00;;;4.50;;
72087;SDS011;59961;50.232;8.616;2022-08-21T01:37:42;9.57;;;4.17;;
72087;SDS011;59961;50.232;8.616;2022-08-21T01:40:08;9.03;;;4.10;;
72087;SDS011;59961;50.232;8.616;2022-08-21T01:42:33;10.10;;;4.50;;
72087;SDS011;59961;50.232;8.616;2022-08-21T01:44:58;7.00;;;3.97;;
72087;SDS011;59961;50.232;8.616;2022-08-21T01:47:24;9.47;;;3.93;;
72087;SDS011;59961;50.232;8.616;2022-08-21T01:49:49;8.43;;;4.40;;
72087;SDS011;59961;50.232;8.616;2022-08-21T01:52:14;8.43;;;4.07;;
72087;SDS011;59961;50.232;8.616;2022-08-21T01:54:40;8.27;;;3.77;;
72087;SDS011;59961;50.232;8.616;2022-08-21T01:57:05;7.75;;;4.40;;
72087;SDS011;59961;50.232;8.616;2022-08-21T01:59:31;9.67;;;4.50;;
72087;SDS011;59961;50.232;8.616;2022-08-21T02:01:56;8.17;;;4.23;;
72087;SDS011;59961;50.232;8.616;2022-08-21T02:04:22;11.02;;;5.03;;
72087;SDS011;59961;50.232;8.616;2022-08-21T02:06:47;9.77;;;4.70;;
72087;SDS011;59961;50.232;8.616;2022-08-21T02:09:13;7.87;;;4.23;;
72087;SDS011;59961;50.232;8.616;2022-08-21T02:11:38;10.13;;;4.85;;
72087;SDS011;59961;50.232;8.616;2022-08-21T02:14:07;11.98;;;4.70;;
72087;SDS011;59961;50.232;8.616;2022-08-21T02:16:33;8.97;;;4.40;;
72087;SDS011;59961;50.232;8.616;2022-08-21T02:18:58;9.80;;;4.60;;
72087;SDS011;59961;50.232;8.616;2022-08-21T02:21:23;12.50;;;4.77;;
72087;SDS011;59961;50.232;8.616;2022-08-21T02:23:48;9.40;;;4.50;;
72087;SDS011;59961;50.232;8.616;2022-08-21T02:26:13;8.00;;;4.60;;
72087;SDS011;59961;50.232;8.616;2022-08-21T02:28:39;10.20;;;4.80;;
72087;SDS011;59961;50.232;8.616;2022-08-21T02:31:05;9.55;;;4.65;;
72087;SDS011;59961;50.232;8.616;2022-08-21T02:33:30;9.40;;;4.47;;
72087;SDS011;59961;50.232;8.616;2022-08-21T02:35:56;9.50;;;4.90;;
72087;SDS011;59961;50.232;8.616;2022-08-21T02:38:25;10.70;;;5.33;;
72087;SDS011;59961;50.232;8.616;2022-08-21T02:40:51;10.50;;;4.72;;
72087;SDS011;59961;50.232;8.616;2022-08-21T02:43:17;8.60;;;4.70;;
72087;SDS011;59961;50.232;8.616;2022-08-21T02:45:43;10.15;;;4.88;;
72087;SDS011;59961;50.232;8.616;2022-08-21T02:48:09;8.27;;;4.90;;
72087;SDS011;59961;50.232;8.616;2022-08-21T02:50:35;7.90;;;4.80;;
72087;SDS011;59961;50.232;8.616;2022-08-21T02:53:01;8.95;;;4.80;;
72087;SDS011;59961;50.232;8.616;2022-08-21T02:55:28;10.50;;;5.05;;
72087;SDS011;59961;50.232;8.616;2022-08-21T02:57:54;8.73;;;4.85;;
72087;SDS011;59961;50.232;8.616;2022-08-21T03:00:20;9.80;;;4.80;;
72087;SDS011;59961;50.232;8.616;2022-08-21T03:02:47;10.23;;;4.53;;
72087;SDS011;59961;50.232;8.616;2022-08-21T03:05:13;9.15;;;4.70;;
72087;SDS011;59961;50.232;8.616;2022-08-21T03:07:39;10.33;;;4.97;;
72087;SDS011;59961;50.232;8.616;2022-08-21T03:10:05;9.88;;;4.82;;
72087;SDS011;59961;50.232;8.616;2022-08-21T03:12:30;9.43;;;4.70;;
72087;SDS011;59961;50.232;8.616;2022-08-21T03:14:55;8.60;;;5.30;;
72087;SDS011;59961;50.232;8.616;2022-08-21T03:17:20;9.27;;;4.57;;
72087;SDS011;59961;50.232;8.616;2022-08-21T03:19:46;11.93;;;5.00;;
72087;SDS011;59961;50.232;8.616;2022-08-21T03:22:11;10.20;;;4.82;;
72087;SDS011;59961;50.232;8.616;2022-08-21T03:24:36;10.43;;;5.10;;
72087;SDS011;59961;50.232;8.616;2022-08-21T03:27:02;9.70;;;4.90;;
72087;SDS011;59961;50.232;8.616;2022-08-21T03:29:28;8.50;;;4.70;;
72087;SDS011;59961;50.232;8.616;2022-08-21T03:31:53;8.97;;;5.33;;
72087;SDS011;59961;50.232;8.616;2022-08-21T03:34:19;9.60;;;5.18;;
72087;SDS011;59961;50.232;8.616;2022-08-21T03:36:44;10.87;;;5.17;;
72087;SDS011;59961;50.232;8.616;2022-08-21T03:39:09;12.85;;;5.10;;
72087;SDS011;59961;50.232;8.616;2022-08-21T03:41:34;10.47;;;5.30;;
72087;SDS011;59961;50.232;8.616;2022-08-21T03:43:59;8.73;;;4.82;;
72087;SDS011;59961;50.232;8.616;2022-08-21T03:46:25;8.67;;;5.30;;
72087;SDS011;59961;50.232;8.616;2022-08-21T03:48:50;8.63;;;4.50;;
72087;SDS011;59961;50.232;8.616;2022-08-21T03:51:17;8.40;;;5.28;;
72087;SDS011;59961;50.232;8.616;2022-08-21T03:53:43;9.40;;;5.43;;
72087;SDS011;59961;50.232;8.616;2022-08-21T03:56:08;10.82;;;5.30;;
72087;SDS011;59961;50.232;8.616;2022-08-21T03:58:33;10.63;;;5.43;;
72087;SDS011;59961;50.232;8.616;2022-08-21T04:00:59;10.00;;;5.17;;
72087;SDS011;59961;50.232;8.616;2022-08-21T04:03:25;8.05;;;4.78;;
72087;SDS011;59961;50.232;8.616;2022-08-21T04:05:51;8.80;;;5.00;;
72087;SDS011;59961;50.232;8.616;2022-08-21T04:08:16;7.60;;;4.93;;
72087;SDS011;59961;50.232;8.616;2022-08-21T04:10:45;9.23;;;4.97;;
72087;SDS011;59961;50.232;8.616;2022-08-21T04:13:11;10.93;;;5.20;;
72087;SDS011;59961;50.232;8.616;2022-08-21T04:15:36;10.48;;;5.07;;
72087;SDS011;59961;50.232;8.616;2022-08-21T04:18:02;9.07;;;5.33;;
72087;SDS011;59961;50.232;8.616;2022-08-21T04:20:28;10.23;;;4.90;;
72087;SDS011;59961;50.232;8.616;2022-08-21T04:22:53;11.32;;;5.47;;
72087;SDS011;59961;50.232;8.616;2022-08-21T04:25:19;8.07;;;4.95;;
72087;SDS011;59961;50.232;8.616;2022-08-21T04:27:45;9.32;;;5.00;;
72087;SDS011;59961;50.232;8.616;2022-08-21T04:30:11;8.10;;;4.80;;
72087;SDS011;59961;50.232;8.616;2022-08-21T04:32:36;8.85;;;4.47;;
72087;SDS011;59961;50.232;8.616;2022-08-21T04:35:06;8.80;;;4.97;;
72087;SDS011;59961;50.232;8.616;2022-08-21T04:37:32;8.50;;;5.10;;
72087;SDS011;59961;50.232;8.616;2022-08-21T04:39:57;12.17;;;5.27;;
72087;SDS011;59961;50.232;8.616;2022-08-21T04:42:23;9.65;;;5.47;;
72087;SDS011;59961;50.232;8.616;2022-08-21T04:44:48;20.67;;;5.37;;
72087;SDS011;59961;50.232;8.616;2022-08-21T04:47:14;25.73;;;5.63;;
72087;SDS011;59961;50.232;8.616;2022-08-21T04:49:39;12.00;;;5.05;;
72087;SDS011;59961;50.232;8.616;2022-08-21T04:52:05;10.68;;;5.65;;
72087;SDS011;59961;50.232;8.616;2022-08-21T04:54:31;9.07;;;4.67;;
72087;SDS011;59961;50.232;8.616;2022-08-21T04:56:57;15.10;;;5.20;;
72087;SDS011;59961;50.232;8.616;2022-08-21T04:59:26;12.52;;;5.20;;
72087;SDS011;59961;50.232;8.616;2022-08-21T05:01:52;11.93;;;6.95;;
72087;SDS011;59961;50.232;8.616;2022-08-21T05:04:21;11.27;;;5.57;;
72087;SDS011;59961;50.232;8.616;2022-08-21T05:06:47;11.68;;;5.28;;
72087;SDS011;59961;50.232;8.616;2022-08-21T05:09:14;10.87;;;5.13;;
72087;SDS011;59961;50.232;8.616;2022-08-21T05:11:40;8.82;;;5.35;;
72087;SDS011;59961;50.232;8.616;2022-08-21T05:14:06;11.02;;;5.07;;
72087;SDS011;59961;50.232;8.616;2022-08-21T05:16:31;11.73;;;6.20;;
72087;SDS011;59961;50.232;8.616;2022-08-21T05:18:57;12.02;;;5.35;;
72087;SDS011;59961;50.232;8.616;2022-08-21T05:21:22;10.93;;;5.22;;
72087;SDS011;59961;50.232;8.616;2022-08-21T05:23:47;9.60;;;5.68;;
72087;SDS011;59961;50.232;8.616;2022-08-21T05:26:12;10.75;;;5.13;;
72087;SDS011;59961;50.232;8.616;2022-08-21T05:28:37;8.00;;;4.55;;
72087;SDS011;59961;50.232;8.616;2022-08-21T05:31:02;9.80;;;5.13;;
72087;SDS011;59961;50.232;8.616;2022-08-21T05:33:28;10.90;;;5.20;;
72087;SDS011;59961;50.232;8.616;2022-08-21T05:35:53;8.43;;;5.20;;
72087;SDS011;59961;50.232;8.616;2022-08-21T05:38:20;9.90;;;5.13;;
72087;SDS011;59961;50.232;8.616;2022-08-21T05:40:46;9.30;;;5.10;;
72087;SDS011;59961;50.232;8.616;2022-08-21T05:43:11;10.23;;;5.03;;
72087;SDS011;59961;50.232;8.616;2022-08-21T05:45:36;10.23;;;5.30;;
72087;SDS011;59961;50.232;8.616;2022-08-21T05:48:05;10.20;;;5.10;;
72087;SDS011;59961;50.232;8.616;2022-08-21T05:50:30;11.43;;;5.35;;
72087;SDS011;59961;50.232;8.616;2022-08-21T05:52:56;10.30;;;5.67;;
72087;SDS011;59961;50.232;8.616;2022-08-21T05:55:21;12.27;;;5.40;;
72087;SDS011;59961;50.232;8.616;2022-08-21T05:57:46;10.65;;;5.30;;
72087;SDS011;59961;50.232;8.616;2022-08-21T06:00:11;11.53;;;5.37;;
72087;SDS011;59961;50.232;8.616;2022-08-21T06:02:37;8.27;;;5.30;;
72087;SDS011;59961;50.232;8.616;2022-08-21T06:05:02;12.33;;;5.60;;
72087;SDS011;59961;50.232;8.616;2022-08-21T06:07:28;10.07;;;5.43;;
72087;SDS011;59961;50.232;8.616;2022-08-21T06:09:53;9.80;;;5.43;;
72087;SDS011;59961;50.232;8.616;2022-08-21T06:12:19;11.87;;;5.30;;
72087;SDS011;59961;50.232;8.616;2022-08-21T06:14:44;9.93;;;4.72;;
72087;SDS011;59961;50.232;8.616;2022-08-21T06:17:10;8.93;;;4.32;;
72087;SDS011;59961;50.232;8.616;2022-08-21T06:19:36;12.35;;;5.05;;
72087;SDS011;59961;50.232;8.616;2022-08-21T06:22:02;11.37;;;5.10;;
72087;SDS011;59961;50.232;8.616;2022-08-21T06:24:27;9.30;;;4.82;;
72087;SDS011;59961;50.232;8.616;2022-08-21T06:26:53;9.13;;;5.13;;
72087;SDS011;59961;50.232;8.616;2022-08-21T06:29:18;10.25;;;5.25;;
72087;SDS011;59961;50.232;8.616;2022-08-21T06:31:44;9.47;;;5.37;;
72087;SDS011;59961;50.232;8.616;2022-08-21T06:34:09;8.93;;;4.77;;
72087;SDS011;59961;50.232;8.616;2022-08-21T06:36:35;12.17;;;6.63;;
72087;SDS011;59961;50.232;8.616;2022-08-21T06:39:00;9.90;;;4.75;;
72087;SDS011;59961;50.232;8.616;2022-08-21T06:41:26;9.33;;;4.43;;
72087;SDS011;59961;50.232;8.616;2022-08-21T06:43:51;9.93;;;5.03;;
72087;SDS011;59961;50.232;8.616;2022-08-21T06:46:16;8.57;;;4.27;;
72087;SDS011;59961;50.232;8.616;2022-08-21T06:48:41;9.68;;;4.65;;
72087;SDS011;59961;50.232;8.616;2022-08-21T06:51:06;8.80;;;4.57;;
72087;SDS011;59961;50.232;8.616;2022-08-21T06:53:32;9.60;;;5.47;;
72087;SDS011;59961;50.232;8.616;2022-08-21T06:55:57;9.43;;;5.27;;
72087;SDS011;59961;50.232;8.616;2022-08-21T06:58:22;8.47;;;4.97;;
72087;SDS011;59961;50.232;8.616;2022-08-21T07:00:48;10.07;;;5.13;;
72087;SDS011;59961;50.232;8.616;2022-08-21T07:03:21;11.65;;;5.35;;
72087;SDS011;59961;50.232;8.616;2022-08-21T07:05:46;11.77;;;5.93;;
72087;SDS011;59961;50.232;8.616;2022-08-21T07:08:11;10.70;;;5.63;;
72087;SDS011;59961;50.232;8.616;2022-08-21T07:10:36;9.93;;;5.10;;
72087;SDS011;59961;50.232;8.616;2022-08-21T07:13:02;9.07;;;5.43;;
72087;SDS011;59961;50.232;8.616;2022-08-21T07:15:28;12.45;;;5.10;;
72087;SDS011;59961;50.232;8.616;2022-08-21T07:17:53;12.80;;;5.95;;
72087;SDS011;59961;50.232;8.616;2022-08-21T07:20:18;10.33;;;5.27;;
72087;SDS011;59961;50.232;8.616;2022-08-21T07:22:43;13.75;;;5.70;;
72087;SDS011;59961;50.232;8.616;2022-08-21T07:25:09;10.30;;;4.97;;
72087;SDS011;59961;50.232;8.616;2022-08-21T07:27:34;13.60;;;5.60;;
72087;SDS011;59961;50.232;8.616;2022-08-21T07:29:59;10.27;;;5.23;;
72087;SDS011;59961;50.232;8.616;2022-08-21T07:32:24;11.07;;;5.20;;
72087;SDS011;59961;50.232;8.616;2022-08-21T07:34:49;10.10;;;4.82;;
72087;SDS011;59961;50.232;8.616;2022-08-21T07:37:15;9.77;;;5.47;;
72087;SDS011;59961;50.232;8.616;2022-08-21T07:39:40;9.18;;;5.00;;
72087;SDS011;59961;50.232;8.616;2022-08-21T07:42:05;9.73;;;4.53;;
72087;SDS011;59961;50.232;8.616;2022-08-21T07:44:30;8.30;;;4.30;;
72087;SDS011;59961;50.232;8.616;2022-08-21T07:46:55;10.13;;;5.10;;
72087;SDS011;59961;50.232;8.616;2022-08-21T07:49:20;9.25;;;4.85;;
72087;SDS011;59961;50.232;8.616;2022-08-21T07:51:45;11.30;;;5.73;;
72087;SDS011;59961;50.232;8.616;2022-08-21T07:54:11;8.65;;;4.75;;
72087;SDS011;59961;50.232;8.616;2022-08-21T07:56:36;7.47;;;4.40;;
72087;SDS011;59961;50.232;8.616;2022-08-21T07:59:01;9.55;;;5.43;;
72087;SDS011;59961;50.232;8.616;2022-08-21T08:01:28;10.27;;;5.00;;
72087;SDS011;59961;50.232;8.616;2022-08-21T08:03:53;10.25;;;5.50;;
72087;SDS011;59961;50.232;8.616;2022-08-21T08:06:18;10.00;;;5.00;;
72087;SDS011;59961;50.232;8.616;2022-08-21T08:08:44;11.05;;;5.53;;
72087;SDS011;59961;50.232;8.616;2022-08-21T08:11:09;11.97;;;5.33;;
72087;SDS011;59961;50.232;8.616;2022-08-21T08:13:40;11.97;;;5.97;;
72087;SDS011;59961;50.232;8.616;2022-08-21T08:16:06;8.85;;;5.28;;
72087;SDS011;59961;50.232;8.616;2022-08-21T08:18:31;8.10;;;4.63;;
72087;SDS011;59961;50.232;8.616;2022-08-21T08:20:57;9.77;;;5.25;;
72087;SDS011;59961;50.232;8.616;2022-08-21T08:23:22;9.40;;;5.38;;
72087;SDS011;59961;50.232;8.616;2022-08-21T08:25:48;8.57;;;4.97;;
72087;SDS011;59961;50.232;8.616;2022-08-21T08:28:13;11.37;;;5.07;;
72087;SDS011;59961;50.232;8.616;2022-08-21T08:30:38;13.05;;;6.00;;
72087;SDS011;59961;50.232;8.616;2022-08-21T08:33:03;10.03;;;5.57;;
72087;SDS011;59961;50.232;8.616;2022-08-21T08:35:28;8.83;;;4.87;;
72087;SDS011;59961;50.232;8.616;2022-08-21T08:37:54;9.43;;;5.38;;
72087;SDS011;59961;50.232;8.616;2022-08-21T08:40:22;10.60;;;5.03;;
72087;SDS011;59961;50.232;8.616;2022-08-21T08:42:49;11.43;;;5.60;;
72087;SDS011;59961;50.232;8.616;2022-08-21T08:45:17;10.73;;;5.05;;
72087;SDS011;59961;50.232;8.616;2022-08-21T08:47:45;10.43;;;5.23;;
72087;SDS011;59961;50.232;8.616;2022-08-21T08:52:41;10.30;;;5.25;;
72087;SDS011;59961;50.232;8.616;2022-08-21T08:57:34;8.75;;;4.90;;
72087;SDS011;59961;50.232;8.616;2022-08-21T09:00:00;13.70;;;4.87;;
72087;SDS011;59961;50.232;8.616;2022-08-21T09:02:26;10.43;;;4.78;;
72087;SDS011;59961;50.232;8.616;2022-08-21T09:04:54;9.45;;;4.53;;
72087;SDS011;59961;50.232;8.616;2022-08-21T09:07:24;7.72;;;3.95;;
72087;SDS011;59961;50.232;8.616;2022-08-21T09:18:08;7.93;;;3.03;;
72087;SDS011;59961;50.232;8.616;2022-08-21T09:26:16;10.18;;;3.40;;
72087;SDS011;59961;50.232;8.616;2022-08-21T09:28:15;11.75;;;3.78;;
72087;SDS011;59961;50.232;8.616;2022-08-21T09:30:41;7.20;;;3.60;;
72087;SDS011;59961;50.232;8.616;2022-08-21T09:33:06;10.13;;;3.50;;
72087;SDS011;59961;50.232;8.616;2022-08-21T09:35:31;9.10;;;3.60;;
72087;SDS011;59961;50.232;8.616;2022-08-21T09:37:58;13.93;;;4.77;;
72087;SDS011;59961;50.232;8.616;2022-08-21T09:43:22;8.43;;;3.67;;
72087;SDS011;59961;50.232;8.616;2022-08-21T09:45:46;6.03;;;3.50;;
72087;SDS011;59961;50.232;8.616;2022-08-21T09:48:12;8.38;;;3.60;;
72087;SDS011;59961;50.232;8.616;2022-08-21T09:50:38;9.57;;;3.63;;
72087;SDS011;59961;50.232;8.616;2022-08-21T09:53:03;10.05;;;3.80;;
72087;SDS011;59961;50.232;8.616;2022-08-21T09:58:13;8.77;;;3.10;;
72087;SDS011;59961;50.232;8.616;2022-08-21T10:00:38;9.40;;;3.20;;
72087;SDS011;59961;50.232;8.616;2022-08-21T10:03:22;9.13;;;2.80;;
72087;SDS011;59961;50.232;8.616;2022-08-21T10:05:53;6.75;;;2.78;;
72087;SDS011;59961;50.232;8.616;2022-08-21T10:08:19;7.18;;;3.03;;
72087;SDS011;59961;50.232;8.616;2022-08-21T10:10:45;8.98;;;3.13;;
72087;SDS011;59961;50.232;8.616;2022-08-21T10:13:17;9.55;;;3.20;;
72087;SDS011;59961;50.232;8.616;2022-08-21T10:15:47;8.50;;;3.20;;
72087;SDS011;59961;50.232;8.616;2022-08-21T10:25:52;6.88;;;3.20;;
72087;SDS011;59961;50.232;8.616;2022-08-21T10:28:35;7.60;;;2.90;;
72087;SDS011;59961;50.232;8.616;2022-08-21T10:31:18;6.57;;;2.87;;
72087;SDS011;59961;50.232;8.616;2022-08-21T10:33:52;9.40;;;2.50;;
72087;SDS011;59961;50.232;8.616;2022-08-21T10:36:25;6.05;;;2.13;;
72087;SDS011;59961;50.232;8.616;2022-08-21T10:39:07;6.85;;;2.55;;
72087;SDS011;59961;50.232;8.616;2022-08-21T10:41:52;7.55;;;2.63;;
72087;SDS011;59961;50.232;8.616;2022-08-21T10:47:13;6.18;;;2.50;;
72087;SDS011;59961;50.232;8.616;2022-08-21T10:49:44;6.88;;;2.45;;
72087;SDS011;59961;50.232;8.616;2022-08-21T10:54:55;5.88;;;2.42;;
72087;SDS011;59961;50.232;8.616;2022-08-21T10:57:25;5.87;;;2.07;;
72087;SDS011;59961;50.232;8.616;2022-08-21T10:59:55;5.85;;;1.90;;
72087;SDS011;59961;50.232;8.616;2022-08-21T11:02:24;6.43;;;2.30;;
72087;SDS011;59961;50.232;8.616;2022-08-21T11:07:27;4.87;;;2.00;;
72087;SDS011;59961;50.232;8.616;2022-08-21T11:09:54;7.00;;;2.50;;
72087;SDS011;59961;50.232;8.616;2022-08-21T11:12:41;5.20;;;1.98;;
72087;SDS011;59961;50.232;8.616;2022-08-21T11:17:49;5.65;;;1.98;;
72087;SDS011;59961;50.232;8.616;2022-08-21T11:20:21;5.88;;;1.60;;
72087;SDS011;59961;50.232;8.616;2022-08-21T11:22:48;4.32;;;1.58;;
72087;SDS011;59961;50.232;8.616;2022-08-21T11:25:17;5.85;;;1.88;;
72087;SDS011;59961;50.232;8.616;2022-08-21T11:27:46;6.37;;;2.10;;
72087;SDS011;59961;50.232;8.616;2022-08-21T11:30:12;5.63;;;2.20;;
72087;SDS011;59961;50.232;8.616;2022-08-21T11:32:42;5.43;;;2.38;;
72087;SDS011;59961;50.232;8.616;2022-08-21T11:42:54;6.32;;;2.10;;
72087;SDS011;59961;50.232;8.616;2022-08-21T11:45:26;7.97;;;2.17;;
72087;SDS011;59961;50.232;8.616;2022-08-21T11:50:33;4.75;;;1.90;;
72087;SDS011;59961;50.232;8.616;2022-08-21T11:53:03;4.70;;;2.00;;
72087;SDS011;59961;50.232;8.616;2022-08-21T11:58:02;5.53;;;1.63;;
72087;SDS011;59961;50.232;8.616;2022-08-21T12:00:33;3.77;;;1.70;;
72087;SDS011;59961;50.232;8.616;2022-08-21T12:05:55;7.57;;;1.80;;
72087;SDS011;59961;50.232;8.616;2022-08-21T12:11:22;5.00;;;1.67;;
72087;SDS011;59961;50.232;8.616;2022-08-21T12:13:40;6.10;;;1.83;;
72087;SDS011;59961;50.232;8.616;2022-08-21T12:16:28;9.10;;;1.92;;
72087;SDS011;59961;50.232;8.616;2022-08-21T12:19:10;5.70;;;2.25;;
72087;SDS011;59961;50.232;8.616;2022-08-21T12:21:53;3.53;;;1.80;;
72087;SDS011;59961;50.232;8.616;2022-08-21T12:24:33;4.93;;;2.17;;
72087;SDS011;59961;50.232;8.616;2022-08-21T12:27:20;4.63;;;2.10;;
72087;SDS011;59961;50.232;8.616;2022-08-21T12:29:51;4.80;;;1.70;;
72087;SDS011;59961;50.232;8.616;2022-08-21T12:34:44;3.55;;;1.40;;
72087;SDS011;59961;50.232;8.616;2022-08-21T12:39:46;5.72;;;1.83;;
72087;SDS011;59961;50.232;8.616;2022-08-21T12:44:45;4.63;;;1.85;;
72087;SDS011;59961;50.232;8.616;2022-08-21T12:47:21;5.00;;;1.67;;
72087;SDS011;59961;50.232;8.616;2022-08-21T12:49:55;5.78;;;1.73;;
72087;SDS011;59961;50.232;8.616;2022-08-21T12:52:33;6.22;;;1.92;;
72087;SDS011;59961;50.232;8.616;2022-08-21T12:54:59;4.60;;;1.87;;
72087;SDS011;59961;50.232;8.616;2022-08-21T12:57:26;6.27;;;1.70;;
72087;SDS011;59961;50.232;8.616;2022-08-21T12:59:52;4.03;;;1.52;;
72087;SDS011;59961;50.232;8.616;2022-08-21T13:02:18;5.05;;;1.80;;
72087;SDS011;59961;50.232;8.616;2022-08-21T13:04:45;5.28;;;1.50;;
72087;SDS011;59961;50.232;8.616;2022-08-21T13:07:11;4.03;;;1.60;;
72087;SDS011;59961;50.232;8.616;2022-08-21T13:09:44;3.58;;;1.40;;
72087;SDS011;59961;50.232;8.616;2022-08-21T13:12:11;3.70;;;1.73;;
72087;SDS011;59961;50.232;8.616;2022-08-21T13:14:40;3.53;;;1.53;;
72087;SDS011;59961;50.232;8.616;2022-08-21T13:17:06;4.80;;;1.65;;
72087;SDS011;59961;50.232;8.616;2022-08-21T13:19:31;3.27;;;1.33;;
72087;SDS011;59961;50.232;8.616;2022-08-21T13:21:58;4.10;;;2.13;;
72087;SDS011;59961;50.232;8.616;2022-08-21T13:24:31;4.50;;;1.63;;
72087;SDS011;59961;50.232;8.616;2022-08-21T13:26:57;4.97;;;1.73;;
72087;SDS011;59961;50.232;8.616;2022-08-21T13:29:26;2.93;;;1.37;;
72087;SDS011;59961;50.232;8.616;2022-08-21T13:31:55;8.20;;;2.05;;
72087;SDS011;59961;50.232;8.616;2022-08-21T13:34:25;4.57;;;1.60;;
72087;SDS011;59961;50.232;8.616;2022-08-21T13:36:52;3.83;;;1.00;;
72087;SDS011;59961;50.232;8.616;2022-08-21T13:39:19;3.63;;;1.30;;
72087;SDS011;59961;50.232;8.616;2022-08-21T13:41:46;4.10;;;1.37;;
72087;SDS011;59961;50.232;8.616;2022-08-21T13:44:17;4.43;;;1.10;;
72087;SDS011;59961;50.232;8.616;2022-08-21T13:46:43;4.57;;;1.52;;
72087;SDS011;59961;50.232;8.616;2022-08-21T13:49:09;6.45;;;1.55;;
72087;SDS011;59961;50.232;8.616;2022-08-21T13:51:35;6.13;;;1.33;;
72087;SDS011;59961;50.232;8.616;2022-08-21T13:54:01;4.57;;;1.50;;
72087;SDS011;59961;50.232;8.616;2022-08-21T13:57:00;2.67;;;1.40;;
72087;SDS011;59961;50.232;8.616;2022-08-21T13:59:25;4.00;;;1.20;;
72087;SDS011;59961;50.232;8.616;2022-08-21T14:01:52;2.40;;;0.80;;
72087;SDS011;59961;50.232;8.616;2022-08-21T14:04:20;3.00;;;1.20;;
72087;SDS011;59961;50.232;8.616;2022-08-21T14:06:46;5.43;;;1.30;;
72087;SDS011;59961;50.232;8.616;2022-08-21T14:09:15;3.97;;;1.60;;
72087;SDS011;59961;50.232;8.616;2022-08-21T14:11:48;6.03;;;1.50;;
72087;SDS011;59961;50.232;8.616;2022-08-21T14:14:20;5.27;;;1.30;;
72087;SDS011;59961;50.232;8.616;2022-08-21T14:16:53;4.70;;;1.92;;
72087;SDS011;59961;50.232;8.616;2022-08-21T14:19:20;2.95;;;1.30;;
72087;SDS011;59961;50.232;8.616;2022-08-21T14:21:46;3.57;;;1.40;;
72087;SDS011;59961;50.232;8.616;2022-08-21T14:24:13;3.38;;;1.27;;
72087;SDS011;59961;50.232;8.616;2022-08-21T14:27:11;3.05;;;1.05;;
72087;SDS011;59961;50.232;8.616;2022-08-21T14:29:32;3.60;;;1.40;;
72087;SDS011;59961;50.232;8.616;2022-08-21T14:31:58;3.65;;;1.40;;
72087;SDS011;59961;50.232;8.616;2022-08-21T14:34:24;3.40;;;1.20;;
72087;SDS011;59961;50.232;8.616;2022-08-21T14:36:50;2.45;;;1.10;;
72087;SDS011;59961;50.232;8.616;2022-08-21T14:39:15;3.63;;;1.37;;
72087;SDS011;59961;50.232;8.616;2022-08-21T14:41:41;3.03;;;1.00;;
72087;SDS011;59961;50.232;8.616;2022-08-21T14:44:07;3.05;;;1.30;;
72087;SDS011;59961;50.232;8.616;2022-08-21T14:46:33;2.72;;;1.08;;
72087;SDS011;59961;50.232;8.616;2022-08-21T14:49:00;3.53;;;1.15;;
72087;SDS011;59961;50.232;8.616;2022-08-21T14:51:25;2.13;;;0.93;;
72087;SDS011;59961;50.232;8.616;2022-08-21T14:53:50;3.47;;;1.40;;
72087;SDS011;59961;50.232;8.616;2022-08-21T14:56:15;3.17;;;1.30;;
72087;SDS011;59961;50.232;8.616;2022-08-21T14:58:41;3.00;;;1.30;;
72087;SDS011;59961;50.232;8.616;2022-08-21T15:01:08;3.80;;;1.27;;
72087;SDS011;59961;50.232;8.616;2022-08-21T15:03:33;4.57;;;1.03;;
72087;SDS011;59961;50.232;8.616;2022-08-21T15:05:58;4.17;;;1.30;;
72087;SDS011;59961;50.232;8.616;2022-08-21T15:08:24;2.97;;;1.30;;
72087;SDS011;59961;50.232;8.616;2022-08-21T15:10:49;5.45;;;1.65;;
72087;SDS011;59961;50.232;8.616;2022-08-21T15:13:14;4.80;;;1.67;;
72087;SDS011;59961;50.232;8.616;2022-08-21T15:15:41;5.27;;;1.40;;
72087;SDS011;59961;50.232;8.616;2022-08-21T15:18:07;3.80;;;1.20;;
72087;SDS011;59961;50.232;8.616;2022-08-21T15:20:33;3.67;;;1.35;;
72087;SDS011;59961;50.232;8.616;2022-08-21T15:22:58;4.67;;;1.40;;
72087;SDS011;59961;50.232;8.616;2022-08-21T15:25:23;3.13;;;1.30;;
72087;SDS011;59961;50.232;8.616;2022-08-21T15:27:49;1.93;;;1.00;;
72087;SDS011;59961;50.232;8.616;2022-08-21T15:30:14;3.87;;;1.23;;
72087;SDS011;59961;50.232;8.616;2022-08-21T15:32:39;3.92;;;1.30;;
72087;SDS011;59961;50.232;8.616;2022-08-21T15:35:05;4.45;;;1.40;;
72087;SDS011;59961;50.232;8.616;2022-08-21T15:37:30;5.47;;;1.13;;
72087;SDS011;59961;50.232;8.616;2022-08-21T15:39:56;3.73;;;1.20;;
72087;SDS011;59961;50.232;8.616;2022-08-21T15:42:21;5.07;;;1.40;;
72087;SDS011;59961;50.232;8.616;2022-08-21T15:44:47;2.67;;;1.10;;
72087;SDS011;59961;50.232;8.616;2022-08-21T15:47:14;2.43;;;1.20;;
72087;SDS011;59961;50.232;8.616;2022-08-21T15:49:40;4.85;;;1.40;;